マカオ の空港の天気 - METARとTAF

マカオ国際空港 ( VMMC / MFM ) - マカオ タイパ島
飛行場実況気象(Metar)
観測時間10/19 07:30 CST (10/18 23:30 UTC)
風向・風速北 7m/s
視程10km以上
天気現象
少しの雲 雲底高度 910m
全天の4割程度の雲 雲底高度 1220m
気温24℃
湿度74%
気圧1013hPa
METARVMMC 182330Z 35013KT 9999 FEW030 SCT040 24/19 Q1013 NOSIG
過去の天気等 Google飛行場航空写真 Wunderground天気予報

過去48時間のMETAR

飛行場予報(TAF)
発表時間: 10/19 07:00 CST (10/18 23:00 UTC)
予報対象時間: 19日8時 CST ~ 20日14時 CST
風向・風速北 6m/s
視程9,000m
少しの雲 雲底高度 1,070m
TAF VMMC 182300Z 1900/2006 36012KT 9000 FEW035